createdAt,value
2022-10-22T00:00:28.630Z,353
2022-10-22T00:01:06.680Z,353
2022-10-22T00:01:30.762Z,353
2022-10-22T00:01:58.901Z,353
2022-10-22T00:02:47.456Z,353
2022-10-22T00:03:02.716Z,353
2022-10-22T00:03:34.048Z,353
2022-10-22T00:04:03.216Z,353
2022-10-22T00:04:52.428Z,353
2022-10-22T00:05:06.858Z,353
2022-10-22T00:05:36.414Z,353
2022-10-22T00:06:07.254Z,353
2022-10-22T00:06:38.122Z,353
2022-10-22T00:07:10.340Z,353
2022-10-22T00:07:43.193Z,353
2022-10-22T00:08:13.410Z,353
2022-10-22T00:09:04.962Z,353
2022-10-22T00:14:39.392Z,353
2022-10-22T00:14:57.192Z,353
2022-10-22T00:15:27.656Z,353
2022-10-22T00:16:31.753Z,353
2022-10-22T00:16:59.594Z,353
2022-10-22T00:17:29.820Z,353
2022-10-22T00:18:00.701Z,353
2022-10-22T00:18:34.256Z,353
2022-10-22T00:19:02.271Z,353
2022-10-22T00:19:33.365Z,353
2022-10-22T00:20:05.600Z,353
2022-10-22T00:20:35.112Z,353
2022-10-22T00:21:08.386Z,353
2022-10-22T00:21:39.688Z,353
2022-10-22T00:22:10.048Z,353
2022-10-22T00:22:58.850Z,353
2022-10-22T00:23:41.777Z,353
2022-10-22T00:24:19.161Z,353
2022-10-22T00:24:43.906Z,353
2022-10-22T00:25:14.703Z,353
2022-10-22T00:25:45.785Z,353
2022-10-22T00:26:17.880Z,353
2022-10-22T00:26:49.271Z,353
2022-10-22T00:27:20.144Z,353
2022-10-22T00:27:49.974Z,353
2022-10-22T00:28:20.753Z,353
2022-10-22T00:28:51.917Z,353
2022-10-22T00:29:22.956Z,353
2022-10-22T00:29:53.802Z,353
2022-10-22T00:30:26.644Z,353
2022-10-22T00:30:58.886Z,353
2022-10-22T00:31:28.359Z,353
2022-10-22T00:32:00.078Z,353
2022-10-22T00:32:30.594Z,353
2022-10-22T00:33:00.688Z,353
2022-10-22T00:33:30.796Z,353
2022-10-22T00:34:01.385Z,353
2022-10-22T00:34:32.323Z,353
2022-10-22T00:35:18.902Z,353
2022-10-22T00:35:34.984Z,353
2022-10-22T00:36:05.661Z,353
2022-10-22T00:36:39.064Z,353
2022-10-22T00:37:40.242Z,353
2022-10-22T00:38:11.022Z,353
2022-10-22T00:38:40.740Z,353
2022-10-22T00:39:13.008Z,353
2022-10-22T00:39:42.775Z,353
2022-10-22T00:40:15.296Z,353
2022-10-22T00:40:44.297Z,353
2022-10-22T00:41:15.974Z,353
2022-10-22T00:41:47.908Z,353
2022-10-22T00:42:19.363Z,353
2022-10-22T00:42:50.753Z,353
2022-10-22T00:43:20.938Z,353
2022-10-22T00:43:51.789Z,353
2022-10-22T00:44:22.186Z,353
2022-10-22T00:44:52.552Z,353
2022-10-22T00:45:36.672Z,353
2022-10-22T00:45:56.411Z,353
2022-10-22T00:46:30.031Z,353
2022-10-22T00:47:02.147Z,353
2022-10-22T00:47:30.039Z,353
2022-10-22T00:48:01.322Z,353
2022-10-22T00:48:31.913Z,353
2022-10-22T00:49:02.526Z,353
2022-10-22T00:49:35.203Z,353
2022-10-22T00:50:15.693Z,353
2022-10-22T00:50:40.404Z,353
2022-10-22T00:51:44.980Z,353
2022-10-22T00:52:10.101Z,353
2022-10-22T00:52:40.522Z,353
2022-10-22T00:53:10.153Z,353
2022-10-22T00:53:49.575Z,353
2022-10-22T00:54:11.295Z,353
2022-10-22T00:54:42.871Z,353
2022-10-22T00:55:45.400Z,353
2022-10-22T00:56:20.685Z,353
2022-10-22T00:56:45.701Z,353
2022-10-22T00:57:17.126Z,353
2022-10-22T00:57:51.396Z,353
2022-10-22T00:58:20.711Z,353
2022-10-22T00:59:00.199Z,353
2022-10-22T00:59:22.084Z,353
2022-10-22T00:59:52.235Z,353
2022-10-22T01:01:00.476Z,353
2022-10-22T01:02:13.965Z,353
2022-10-22T01:02:30.678Z,353
2022-10-22T01:03:00.476Z,353
2022-10-22T01:03:34.752Z,353
2022-10-22T01:04:30.157Z,353
2022-10-22T01:05:52.932Z,353
2022-10-22T01:06:56.729Z,353
2022-10-22T01:07:06.436Z,353
2022-10-22T01:07:43.843Z,353
2022-10-22T01:08:14.002Z,353
2022-10-22T01:08:41.987Z,353
2022-10-22T01:09:11.313Z,353
2022-10-22T01:09:41.714Z,353
2022-10-22T01:11:18.040Z,353
2022-10-22T01:11:50.473Z,353
2022-10-22T01:12:16.100Z,353
2022-10-22T01:12:48.493Z,353
2022-10-22T01:13:20.569Z,353
2022-10-22T01:13:50.630Z,353
2022-10-22T01:14:21.868Z,353
2022-10-22T01:14:52.288Z,353
2022-10-22T01:15:22.769Z,353
2022-10-22T01:15:54.736Z,353
2022-10-22T01:16:24.380Z,353
2022-10-22T01:16:55.512Z,353
2022-10-22T01:17:36.404Z,353
2022-10-22T01:18:31.248Z,353
2022-10-22T01:19:00.717Z,353
2022-10-22T01:19:31.652Z,353
2022-10-22T01:20:39.644Z,353
2022-10-22T01:21:17.898Z,353
2022-10-22T01:21:34.268Z,353
2022-10-22T01:22:26.541Z,353
2022-10-22T01:22:36.011Z,353
2022-10-22T01:23:11.921Z,353
2022-10-22T01:23:40.450Z,353
2022-10-22T01:24:14.919Z,353
2022-10-22T01:24:41.783Z,353
2022-10-22T01:25:11.725Z,353
2022-10-22T01:25:50.599Z,353
2022-10-22T01:26:15.881Z,353
2022-10-22T01:26:43.996Z,353
2022-10-22T01:27:15.047Z,353
2022-10-22T01:27:51.403Z,353
2022-10-22T01:28:18.356Z,353
2022-10-22T01:29:06.104Z,353
2022-10-22T01:29:21.955Z,353
2022-10-22T01:29:53.187Z,353
2022-10-22T01:30:25.677Z,353
2022-10-22T01:30:56.837Z,353
2022-10-22T01:31:23.594Z,353
2022-10-22T01:31:54.275Z,353
2022-10-22T01:32:25.550Z,353
2022-10-22T01:32:57.736Z,353
2022-10-22T01:33:28.410Z,353
2022-10-22T01:33:59.842Z,353
2022-10-22T01:34:31.870Z,353
2022-10-22T01:35:01.582Z,353
2022-10-22T01:35:42.099Z,353
2022-10-22T01:36:04.049Z,353
2022-10-22T01:36:39.928Z,353
2022-10-22T01:37:35.260Z,353
2022-10-22T01:38:07.003Z,353
2022-10-22T01:38:37.587Z,353
2022-10-22T01:39:09.996Z,353
2022-10-22T01:39:42.604Z,353
2022-10-22T01:40:11.531Z,353
2022-10-22T01:40:42.113Z,353
2022-10-22T01:41:13.036Z,353
2022-10-22T01:41:43.549Z,353
2022-10-22T01:42:14.859Z,353
2022-10-22T01:42:45.029Z,353
2022-10-22T01:43:18.681Z,353
2022-10-22T01:43:46.904Z,353
2022-10-22T01:44:17.326Z,353
2022-10-22T01:45:00.797Z,353
2022-10-22T01:45:22.608Z,353
2022-10-22T01:45:52.467Z,353
2022-10-22T01:46:22.136Z,353
2022-10-22T01:47:11.943Z,353
2022-10-22T01:47:24.776Z,353
2022-10-22T01:47:54.820Z,353
2022-10-22T01:48:26.287Z,353
2022-10-22T01:48:57.034Z,353
2022-10-22T01:49:30.623Z,353
2022-10-22T01:50:02.539Z,353
2022-10-22T01:50:33.666Z,353
2022-10-22T01:51:02.647Z,353
2022-10-22T01:51:33.261Z,353
2022-10-22T01:52:03.312Z,353
2022-10-22T01:52:33.257Z,353
2022-10-22T01:53:05.189Z,353
2022-10-22T01:53:35.937Z,353
2022-10-22T01:54:06.667Z,353
2022-10-22T01:55:12.022Z,353
2022-10-22T01:55:42.880Z,353
2022-10-22T01:56:17.372Z,353
2022-10-22T01:56:46.768Z,353
2022-10-22T01:57:13.350Z,353
2022-10-22T01:57:44.064Z,353
2022-10-22T01:58:15.518Z,353
2022-10-22T01:58:46.433Z,353
2022-10-22T01:59:16.832Z,353
2022-10-22T01:59:48.165Z,353
2022-10-22T02:00:46.969Z,353
2022-10-22T02:01:22.044Z,353
2022-10-22T02:01:52.260Z,353
2022-10-22T02:02:23.257Z,353
2022-10-22T02:02:55.676Z,353
2022-10-22T02:03:24.568Z,353
2022-10-22T02:03:55.515Z,353
2022-10-22T02:04:27.363Z,353
2022-10-22T02:04:58.602Z,353
2022-10-22T02:05:29.171Z,353
2022-10-22T02:06:02.837Z,353
2022-10-22T02:06:32.421Z,353
2022-10-22T02:07:03.406Z,353
2022-10-22T02:07:32.878Z,353
2022-10-22T02:08:04.132Z,353
2022-10-22T02:08:35.003Z,353
2022-10-22T02:09:06.182Z,353
2022-10-22T02:09:37.441Z,353
2022-10-22T02:10:11.821Z,353
2022-10-22T02:10:41.392Z,353
2022-10-22T02:11:09.905Z,353
2022-10-22T02:11:42.446Z,353
2022-10-22T02:12:13.008Z,353
2022-10-22T02:12:43.500Z,353
2022-10-22T02:13:14.685Z,353
2022-10-22T02:13:46.085Z,353
2022-10-22T02:14:16.179Z,353
2022-10-22T02:14:47.613Z,353
2022-10-22T02:15:20.956Z,353
2022-10-22T02:15:52.032Z,353
2022-10-22T02:16:22.801Z,353
2022-10-22T02:16:52.687Z,353
2022-10-22T02:17:23.171Z,353
2022-10-22T02:17:53.545Z,353
2022-10-22T02:18:23.503Z,353
2022-10-22T02:18:54.609Z,353
2022-10-22T02:19:25.566Z,353
2022-10-22T02:19:56.729Z,353
2022-10-22T02:20:28.910Z,353
2022-10-22T02:21:00.300Z,353
2022-10-22T02:21:32.933Z,353
2022-10-22T02:22:32.963Z,353
2022-10-22T02:23:02.958Z,353
2022-10-22T02:23:34.031Z,353
2022-10-22T02:24:10.043Z,353
2022-10-22T02:24:35.729Z,353
2022-10-22T02:25:08.519Z,353
2022-10-22T02:25:38.628Z,353
2022-10-22T02:26:09.041Z,353
2022-10-22T02:26:42.758Z,353
2022-10-22T02:27:13.485Z,353
2022-10-22T02:27:43.501Z,353
2022-10-22T02:28:14.312Z,353
2022-10-22T02:28:43.804Z,353
2022-10-22T02:29:15.383Z,353
2022-10-22T02:29:45.510Z,353
2022-10-22T02:30:18.369Z,353
2022-10-22T02:30:48.394Z,353
2022-10-22T02:31:19.450Z,353
2022-10-22T02:31:52.556Z,353
2022-10-22T02:32:22.900Z,353
2022-10-22T02:32:52.689Z,353
2022-10-22T02:33:24.301Z,353
2022-10-22T02:33:53.741Z,353
2022-10-22T02:34:24.764Z,353
2022-10-22T02:35:04.810Z,353
2022-10-22T02:35:26.914Z,353
2022-10-22T02:35:59.738Z,353
2022-10-22T02:36:28.700Z,353
2022-10-22T02:37:00.643Z,353
2022-10-22T02:37:36.184Z,353
2022-10-22T02:38:19.479Z,353
2022-10-22T02:38:34.483Z,353
2022-10-22T02:39:03.737Z,353
2022-10-22T02:39:34.567Z,353
2022-10-22T02:40:36.822Z,353
2022-10-22T02:41:08.679Z,353
2022-10-22T02:41:39.353Z,353
2022-10-22T02:42:13.421Z,353
2022-10-22T02:42:44.056Z,353
2022-10-22T02:43:14.186Z,353
2022-10-22T02:43:44.175Z,353
2022-10-22T02:44:14.530Z,353
2022-10-22T02:44:45.191Z,353
2022-10-22T02:45:28.206Z,353
2022-10-22T02:45:47.505Z,353
2022-10-22T02:46:23.421Z,353
2022-10-22T02:46:48.861Z,353
2022-10-22T02:47:28.995Z,353
2022-10-22T02:48:09.072Z,353
2022-10-22T02:48:54.509Z,353
2022-10-22T02:49:24.565Z,353
2022-10-22T02:50:13.942Z,353
2022-10-22T02:50:26.844Z,353
2022-10-22T02:50:59.023Z,353
2022-10-22T02:51:28.076Z,353
2022-10-22T02:51:59.555Z,353
2022-10-22T02:52:32.906Z,353
2022-10-22T02:53:03.988Z,353
2022-10-22T02:53:34.172Z,353
2022-10-22T02:54:04.688Z,353
2022-10-22T02:54:35.638Z,353
2022-10-22T02:55:06.748Z,353
2022-10-22T02:55:35.549Z,353
2022-10-22T02:56:07.583Z,353
2022-10-22T02:57:09.515Z,353
2022-10-22T02:57:40.456Z,353
2022-10-22T02:58:13.821Z,353
2022-10-22T02:58:45.012Z,353
2022-10-22T02:59:14.531Z,353
2022-10-22T02:59:44.179Z,353
2022-10-22T03:00:16.414Z,353
2022-10-22T03:00:47.690Z,353
2022-10-22T03:01:24.730Z,353
2022-10-22T03:01:48.470Z,353
2022-10-22T03:02:19.414Z,353
2022-10-22T03:02:51.460Z,353
2022-10-22T03:03:29.251Z,353
2022-10-22T03:03:54.420Z,353
2022-10-22T03:04:24.860Z,353
2022-10-22T03:04:55.563Z,353
2022-10-22T03:05:26.701Z,353
2022-10-22T03:05:56.532Z,353
2022-10-22T03:06:27.692Z,353
2022-10-22T03:06:58.009Z,353
2022-10-22T03:07:29.703Z,353
2022-10-22T03:07:59.969Z,353
2022-10-22T03:08:33.781Z,353
2022-10-22T03:09:04.390Z,353
2022-10-22T03:09:34.105Z,353
2022-10-22T03:10:06.714Z,353
2022-10-22T03:10:39.906Z,353
2022-10-22T03:11:06.489Z,353
2022-10-22T03:11:37.182Z,353
2022-10-22T03:12:09.361Z,353
2022-10-22T03:12:39.392Z,353
2022-10-22T03:13:09.892Z,353
2022-10-22T03:13:44.814Z,353
2022-10-22T03:14:22.403Z,353
2022-10-22T03:14:45.914Z,353
2022-10-22T03:15:15.380Z,353
2022-10-22T03:15:45.065Z,353
2022-10-22T03:16:16.459Z,353
2022-10-22T03:16:48.419Z,353
2022-10-22T03:17:17.881Z,353
2022-10-22T03:18:20.172Z,353
2022-10-22T03:19:24.698Z,353
2022-10-22T03:19:54.225Z,353
2022-10-22T03:20:25.190Z,353
2022-10-22T03:20:55.289Z,353
2022-10-22T03:21:26.407Z,353
2022-10-22T03:21:57.495Z,353
2022-10-22T03:22:28.137Z,353
2022-10-22T03:22:59.102Z,353
2022-10-22T03:23:32.014Z,353
2022-10-22T03:24:04.142Z,353
2022-10-22T03:24:34.510Z,358
2022-10-22T03:25:05.105Z,358
2022-10-22T03:25:35.522Z,358
2022-10-22T03:26:05.599Z,358
2022-10-22T03:26:36.533Z,358
2022-10-22T03:27:07.022Z,358
2022-10-22T03:27:38.918Z,358
2022-10-22T03:28:09.664Z,358
2022-10-22T03:29:11.601Z,4
2022-10-22T03:29:44.740Z,5
2022-10-22T03:30:16.647Z,5
2022-10-22T03:30:46.244Z,5
2022-10-22T03:31:15.369Z,5
2022-10-22T03:31:46.606Z,5
2022-10-22T03:32:17.481Z,5
2022-10-22T03:32:49.054Z,5
2022-10-22T03:33:51.415Z,5
2022-10-22T03:34:23.741Z,5
2022-10-22T03:34:55.084Z,5
2022-10-22T03:35:25.298Z,5
2022-10-22T03:35:54.919Z,5
2022-10-22T03:36:26.030Z,5
2022-10-22T03:36:56.251Z,5
2022-10-22T03:37:26.942Z,5
2022-10-22T03:38:15.987Z,5
2022-10-22T03:38:29.409Z,5
2022-10-22T03:39:01.045Z,5
2022-10-22T03:39:32.069Z,5
2022-10-22T03:40:05.001Z,5
2022-10-22T03:40:35.369Z,5
2022-10-22T03:41:05.674Z,5
2022-10-22T03:41:35.473Z,6
2022-10-22T03:42:06.349Z,6
2022-10-22T03:42:37.230Z,5
2022-10-22T03:43:08.013Z,5
2022-10-22T03:43:39.945Z,6
2022-10-22T03:44:09.800Z,6
2022-10-22T03:44:42.140Z,5
2022-10-22T03:45:15.353Z,6
2022-10-22T03:45:45.902Z,6
2022-10-22T03:46:15.394Z,5
2022-10-22T03:46:45.481Z,6
2022-10-22T03:47:16.497Z,6
2022-10-22T03:47:47.997Z,6
2022-10-22T03:48:18.720Z,6
2022-10-22T03:48:49.551Z,6
2022-10-22T03:49:24.137Z,6
2022-10-22T03:49:53.290Z,6
2022-10-22T03:50:23.959Z,6
2022-10-22T03:50:54.784Z,22
2022-10-22T03:51:24.949Z,24
2022-10-22T03:51:55.893Z,24
2022-10-22T03:52:26.437Z,24
2022-10-22T03:52:57.351Z,24
2022-10-22T03:53:28.400Z,24
2022-10-22T03:54:02.572Z,24
2022-10-22T03:54:30.000Z,24
2022-10-22T03:55:04.699Z,24
2022-10-22T03:55:34.960Z,24
2022-10-22T03:56:06.164Z,24
2022-10-22T03:56:35.692Z,24
2022-10-22T03:57:08.505Z,24
2022-10-22T03:57:37.099Z,24
2022-10-22T03:58:07.306Z,24
2022-10-22T03:58:38.319Z,24
2022-10-22T03:59:09.469Z,24
2022-10-22T03:59:40.788Z,24
2022-10-22T04:00:12.719Z,24
2022-10-22T04:00:42.071Z,24
2022-10-22T04:01:43.829Z,23
2022-10-22T04:02:15.315Z,23
2022-10-22T04:02:48.758Z,23
2022-10-22T04:03:18.832Z,23
2022-10-22T04:03:49.526Z,23
2022-10-22T04:04:21.213Z,23
2022-10-22T04:04:51.474Z,23
2022-10-22T04:05:22.055Z,23
2022-10-22T04:05:52.691Z,23
2022-10-22T04:06:23.904Z,23
2022-10-22T04:06:55.081Z,23
2022-10-22T04:07:29.434Z,23
2022-10-22T04:07:57.088Z,23
2022-10-22T04:08:27.853Z,23
2022-10-22T04:08:59.123Z,23
2022-10-22T04:09:31.881Z,23
2022-10-22T04:10:01.785Z,23
2022-10-22T04:10:31.417Z,23
2022-10-22T04:11:03.449Z,23
2022-10-22T04:11:33.508Z,23
2022-10-22T04:12:04.961Z,23
2022-10-22T04:12:36.573Z,23
2022-10-22T04:13:07.021Z,23
2022-10-22T04:13:37.522Z,23
2022-10-22T04:14:10.786Z,23
2022-10-22T04:14:41.192Z,23
2022-10-22T04:15:13.899Z,23
2022-10-22T04:15:43.644Z,23
2022-10-22T04:16:12.403Z,23
2022-10-22T04:16:43.483Z,23
2022-10-22T04:17:46.012Z,23
2022-10-22T04:18:16.432Z,23
2022-10-22T04:18:49.798Z,23
2022-10-22T04:19:21.023Z,23
2022-10-22T04:19:52.054Z,23
2022-10-22T04:20:20.986Z,23
2022-10-22T04:20:52.969Z,24
2022-10-22T04:21:23.085Z,23
2022-10-22T04:21:53.417Z,24
2022-10-22T04:22:24.606Z,24
2022-10-22T04:22:56.406Z,24
2022-10-22T04:23:27.193Z,24
2022-10-22T04:23:57.945Z,24
2022-10-22T04:24:30.782Z,24
2022-10-22T04:25:00.960Z,24
2022-10-22T04:25:32.156Z,24
2022-10-22T04:26:02.754Z,24
2022-10-22T04:26:32.414Z,24
2022-10-22T04:27:04.040Z,24
2022-10-22T04:27:44.811Z,24
2022-10-22T04:28:05.714Z,24
2022-10-22T04:28:39.738Z,24
2022-10-22T04:29:11.938Z,24
2022-10-22T04:29:42.480Z,24
2022-10-22T04:30:11.622Z,24
2022-10-22T04:30:41.897Z,24
2022-10-22T04:31:13.549Z,24
2022-10-22T04:31:44.749Z,24
2022-10-22T04:32:13.892Z,24
2022-10-22T04:32:44.711Z,24
2022-10-22T04:33:15.007Z,24
2022-10-22T04:33:47.336Z,24
2022-10-22T04:34:19.168Z,24
2022-10-22T04:34:51.485Z,24
2022-10-22T04:35:38.488Z,24
2022-10-22T04:35:50.517Z,24
2022-10-22T04:36:21.153Z,24
2022-10-22T04:36:52.167Z,24
2022-10-22T04:37:22.996Z,24
2022-10-22T04:37:54.106Z,24
2022-10-22T04:38:28.195Z,24
2022-10-22T04:38:59.554Z,24
2022-10-22T04:39:30.124Z,24
2022-10-22T04:40:00.358Z,24
2022-10-22T04:40:30.710Z,24
2022-10-22T04:41:02.359Z,24
2022-10-22T04:41:32.235Z,24
2022-10-22T04:42:04.269Z,24
2022-10-22T04:42:34.021Z,24
2022-10-22T04:43:05.164Z,24
2022-10-22T04:43:35.293Z,24
2022-10-22T04:44:24.290Z,24
2022-10-22T04:44:40.275Z,24
2022-10-22T04:45:10.534Z,24
2022-10-22T04:45:39.516Z,24
2022-10-22T04:46:10.898Z,24
2022-10-22T04:46:41.600Z,24
2022-10-22T04:47:12.547Z,24
2022-10-22T04:47:43.572Z,24
2022-10-22T04:48:15.504Z,24
2022-10-22T04:48:46.553Z,24
2022-10-22T04:49:16.618Z,24
2022-10-22T04:49:47.565Z,24
2022-10-22T04:50:19.418Z,24
2022-10-22T04:50:50.091Z,24
2022-10-22T04:51:23.928Z,24
2022-10-22T04:51:53.021Z,24
2022-10-22T04:52:24.142Z,24
2022-10-22T04:52:54.266Z,24
2022-10-22T04:53:25.189Z,24
2022-10-22T04:53:56.313Z,24
2022-10-22T04:54:29.123Z,24
2022-10-22T04:54:58.292Z,24
2022-10-22T04:55:28.580Z,24
2022-10-22T04:56:00.129Z,24
2022-10-22T04:56:31.870Z,24
2022-10-22T04:57:02.776Z,24
2022-10-22T04:57:34.069Z,24
2022-10-22T04:58:40.521Z,24
2022-10-22T04:58:47.217Z,21
2022-10-22T04:59:06.052Z,20
2022-10-22T04:59:36.750Z,15
2022-10-22T05:00:13.340Z,15
2022-10-22T05:00:40.605Z,13
2022-10-22T05:01:10.419Z,10
2022-10-22T05:01:42.848Z,10
2022-10-22T05:02:12.296Z,10
2022-10-22T05:02:41.996Z,10
2022-10-22T05:03:49.371Z,10
2022-10-22T05:04:15.544Z,10
2022-10-22T05:05:42.538Z,10
2022-10-22T05:05:50.670Z,10
2022-10-22T05:06:23.795Z,10
2022-10-22T05:06:51.242Z,10
2022-10-22T05:07:26.454Z,10
2022-10-22T05:07:52.430Z,10
2022-10-22T05:08:23.314Z,10
2022-10-22T05:08:54.421Z,10
2022-10-22T05:09:25.458Z,10
2022-10-22T05:09:56.631Z,10
2022-10-22T05:10:27.570Z,10
2022-10-22T05:10:58.751Z,10
2022-10-22T05:14:02.225Z,10
2022-10-22T05:14:42.572Z,9
2022-10-22T05:15:10.670Z,8
2022-10-22T05:15:37.260Z,9
2022-10-22T05:16:08.650Z,340
2022-10-22T05:16:39.514Z,343
2022-10-22T05:17:10.486Z,343
2022-10-22T05:17:41.523Z,343
2022-10-22T05:18:15.902Z,343
2022-10-22T05:18:45.053Z,343
2022-10-22T05:19:14.881Z,343
2022-10-22T05:19:55.203Z,343
2022-10-22T05:20:16.158Z,344
2022-10-22T05:20:47.462Z,1
2022-10-22T05:21:28.399Z,1
2022-10-22T05:21:49.577Z,1
2022-10-22T05:24:05.765Z,1
2022-10-22T05:25:14.314Z,356
2022-10-22T05:25:26.534Z,349
2022-10-22T05:26:04.812Z,350
2022-10-22T05:26:28.481Z,350
2022-10-22T05:26:59.340Z,348
2022-10-22T05:27:30.337Z,348
2022-10-22T05:28:02.697Z,348
2022-10-22T05:28:34.702Z,348
2022-10-22T05:29:04.463Z,348
2022-10-22T05:29:54.228Z,349
2022-10-22T05:30:25.181Z,349
2022-10-22T05:30:38.087Z,349
2022-10-22T05:31:09.394Z,349
2022-10-22T05:31:38.964Z,349
2022-10-22T05:32:26.451Z,340
2022-10-22T05:32:40.645Z,349
2022-10-22T05:33:30.361Z,350
2022-10-22T05:33:56.134Z,350
2022-10-22T05:34:15.101Z,350
2022-10-22T05:34:44.851Z,350
2022-10-22T05:35:28.120Z,347
2022-10-22T05:35:48.604Z,347
2022-10-22T05:36:17.367Z,347
2022-10-22T05:36:48.323Z,347
2022-10-22T05:37:19.606Z,349
2022-10-22T05:37:50.846Z,350
2022-10-22T05:38:23.501Z,351
2022-10-22T05:38:54.505Z,343
2022-10-22T05:39:25.226Z,345
2022-10-22T05:40:06.517Z,343
2022-10-22T05:40:30.614Z,349
2022-10-22T05:40:56.715Z,351
2022-10-22T05:41:27.403Z,2
2022-10-22T05:41:58.525Z,356
2022-10-22T05:42:29.676Z,3
2022-10-22T05:43:00.618Z,3
2022-10-22T05:43:32.750Z,3
2022-10-22T05:44:05.164Z,4
2022-10-22T05:44:35.782Z,358
2022-10-22T05:45:06.700Z,352
2022-10-22T05:45:35.803Z,355
2022-10-22T05:46:06.790Z,355
2022-10-22T05:46:37.298Z,355
2022-10-22T05:47:08.898Z,0
2022-10-22T05:47:39.612Z,0
2022-10-22T05:48:10.741Z,1
2022-10-22T05:48:42.594Z,2
2022-10-22T05:49:46.389Z,349
2022-10-22T05:50:16.722Z,351
2022-10-22T05:50:47.162Z,356
2022-10-22T05:51:16.620Z,340
2022-10-22T05:51:48.034Z,350
2022-10-22T05:52:19.162Z,354
2022-10-22T05:52:50.012Z,354
2022-10-22T05:53:21.325Z,354
2022-10-22T05:53:53.016Z,319
2022-10-22T05:54:25.497Z,351
2022-10-22T05:54:56.390Z,355
2022-10-22T05:55:26.533Z,15
2022-10-22T05:55:57.744Z,13
2022-10-22T05:56:29.308Z,358
2022-10-22T05:56:57.394Z,355
2022-10-22T05:57:29.287Z,8
2022-10-22T05:58:00.828Z,8
2022-10-22T05:58:30.737Z,359
2022-10-22T05:59:35.424Z,357
2022-10-22T06:00:16.844Z,357
2022-10-22T06:00:37.819Z,345
2022-10-22T06:01:06.983Z,352
2022-10-22T06:01:45.622Z,12
2022-10-22T06:02:07.910Z,52
2022-10-22T06:02:39.606Z,29
2022-10-22T06:03:09.773Z,16
2022-10-22T06:03:41.676Z,14
2022-10-22T06:04:15.322Z,13
2022-10-22T06:04:59.914Z,13
2022-10-22T06:05:16.415Z,13
2022-10-22T06:05:56.165Z,5
2022-10-22T06:06:17.326Z,359
2022-10-22T06:06:50.883Z,357
2022-10-22T06:07:18.842Z,357
2022-10-22T06:07:48.740Z,358
2022-10-22T06:08:20.862Z,335
2022-10-22T06:08:51.655Z,37
2022-10-22T06:09:27.183Z,343
2022-10-22T06:09:55.098Z,343
2022-10-22T06:10:27.035Z,356
2022-10-22T06:10:56.713Z,356
2022-10-22T06:11:28.922Z,357
2022-10-22T06:11:56.922Z,10
2022-10-22T06:12:28.436Z,9
2022-10-22T06:12:58.791Z,10
2022-10-22T06:13:29.765Z,15
2022-10-22T06:14:01.535Z,8
2022-10-22T06:14:34.406Z,0
2022-10-22T06:15:07.213Z,356
2022-10-22T06:15:35.296Z,347
2022-10-22T06:16:06.596Z,358
2022-10-22T06:16:37.313Z,10
2022-10-22T06:17:07.357Z,351
2022-10-22T06:17:38.293Z,352
2022-10-22T06:18:09.164Z,352
2022-10-22T06:18:39.989Z,0
2022-10-22T06:19:12.060Z,6
2022-10-22T06:19:42.347Z,14
2022-10-22T06:20:15.551Z,10
2022-10-22T06:21:17.475Z,324
2022-10-22T06:21:47.406Z,359
2022-10-22T06:22:18.045Z,358
2022-10-22T06:22:48.330Z,357
2022-10-22T06:23:19.581Z,3
2022-10-22T06:23:50.483Z,359
2022-10-22T06:24:22.202Z,0
2022-10-22T06:24:52.205Z,14
2022-10-22T06:25:26.058Z,12
2022-10-22T06:25:57.145Z,13
2022-10-22T06:26:27.449Z,13
2022-10-22T06:27:27.938Z,7
2022-10-22T06:27:57.772Z,7
2022-10-22T06:28:29.164Z,7
2022-10-22T06:29:00.554Z,10
2022-10-22T06:29:31.481Z,346
2022-10-22T06:30:02.629Z,17
2022-10-22T06:30:34.834Z,0
2022-10-22T06:31:07.021Z,0
2022-10-22T06:31:37.540Z,332
2022-10-22T06:32:07.919Z,4
2022-10-22T06:32:38.752Z,356
2022-10-22T06:33:08.235Z,357
2022-10-22T06:33:40.173Z,356
2022-10-22T06:34:21.396Z,31
2022-10-22T06:34:41.633Z,13
2022-10-22T06:35:13.933Z,342
2022-10-22T06:35:58.263Z,352
2022-10-22T06:36:16.104Z,353
2022-10-22T06:36:46.607Z,355
2022-10-22T06:37:17.359Z,9
2022-10-22T06:37:47.671Z,355
2022-10-22T06:38:18.352Z,16
2022-10-22T06:38:49.083Z,16
2022-10-22T06:39:20.968Z,19
2022-10-22T06:39:52.297Z,19
2022-10-22T06:40:22.841Z,3
2022-10-22T06:40:54.775Z,5
2022-10-22T06:41:28.848Z,355
2022-10-22T06:41:56.628Z,358
2022-10-22T06:42:27.496Z,358
2022-10-22T06:43:30.121Z,19
2022-10-22T06:43:58.669Z,18
2022-10-22T06:44:30.024Z,21
2022-10-22T06:45:32.512Z,28
2022-10-22T06:46:06.502Z,59
2022-10-22T06:46:39.053Z,7
2022-10-22T06:47:06.872Z,18
2022-10-22T06:47:38.120Z,22
2022-10-22T06:48:08.566Z,4
2022-10-22T06:48:38.639Z,26
2022-10-22T06:49:09.040Z,355
2022-10-22T06:49:39.952Z,339
2022-10-22T06:50:11.693Z,352
2022-10-22T06:50:42.343Z,0
2022-10-22T06:51:15.140Z,0
2022-10-22T06:51:46.288Z,4
2022-10-22T06:52:16.687Z,3
2022-10-22T06:52:46.738Z,3
2022-10-22T06:53:17.653Z,4
2022-10-22T06:53:47.660Z,10
2022-10-22T06:54:19.116Z,345
2022-10-22T06:54:49.877Z,19
2022-10-22T06:55:20.876Z,13
2022-10-22T06:55:51.848Z,13
2022-10-22T06:56:22.928Z,13
2022-10-22T06:56:56.131Z,13
2022-10-22T06:57:26.543Z,13
2022-10-22T06:57:57.558Z,13
2022-10-22T06:58:28.472Z,13
2022-10-22T06:58:58.752Z,13
2022-10-22T06:59:29.173Z,13
2022-10-22T07:00:00.721Z,13
2022-10-22T07:00:40.570Z,13
2022-10-22T07:01:06.681Z,13
2022-10-22T07:01:33.289Z,13
2022-10-22T07:02:05.607Z,13
2022-10-22T07:02:37.988Z,13
2022-10-22T07:03:08.056Z,13
2022-10-22T07:03:37.701Z,4
2022-10-22T07:04:08.813Z,4
2022-10-22T07:04:39.618Z,4
2022-10-22T07:05:10.373Z,17
2022-10-22T07:05:41.256Z,16
2022-10-22T07:06:12.068Z,19
2022-10-22T07:06:42.869Z,18
2022-10-22T07:07:16.550Z,18
2022-10-22T07:07:46.730Z,23
2022-10-22T07:08:17.077Z,22
2022-10-22T07:08:48.893Z,22
2022-10-22T07:09:30.188Z,22
2022-10-22T07:09:49.484Z,22
2022-10-22T07:10:20.702Z,22
2022-10-22T07:10:52.033Z,22
2022-10-22T07:11:22.376Z,22
2022-10-22T07:11:54.172Z,22
2022-10-22T07:12:26.191Z,22
2022-10-22T07:12:58.342Z,22
2022-10-22T07:13:28.269Z,22
2022-10-22T07:13:58.464Z,22
2022-10-22T07:14:29.564Z,22
2022-10-22T07:14:59.614Z,22
2022-10-22T07:15:30.542Z,22
2022-10-22T07:16:01.322Z,22
2022-10-22T07:16:32.741Z,22
2022-10-22T07:17:03.675Z,22
2022-10-22T07:17:36.916Z,22
2022-10-22T07:18:38.402Z,20
2022-10-22T07:19:08.800Z,356
2022-10-22T07:19:39.017Z,356
2022-10-22T07:20:10.860Z,348
2022-10-22T07:20:40.661Z,345
2022-10-22T07:21:11.049Z,333
2022-10-22T07:21:41.908Z,317
2022-10-22T07:22:13.135Z,327
2022-10-22T07:22:45.854Z,303
2022-10-22T07:23:18.808Z,317
2022-10-22T07:23:48.042Z,345
2022-10-22T07:24:18.931Z,340
2022-10-22T07:24:48.951Z,349
2022-10-22T07:25:19.881Z,351
2022-10-22T07:25:50.943Z,352
2022-10-22T07:26:21.536Z,352
2022-10-22T07:26:52.348Z,352
2022-10-22T07:27:23.603Z,352
2022-10-22T07:27:57.030Z,330
2022-10-22T07:28:28.838Z,326
2022-10-22T07:28:58.678Z,332
2022-10-22T07:29:28.660Z,330
2022-10-22T07:29:59.684Z,343
2022-10-22T07:30:30.218Z,322
2022-10-22T07:31:00.135Z,325
2022-10-22T07:31:31.939Z,347
2022-10-22T07:32:23.666Z,342
2022-10-22T07:32:35.136Z,346
2022-10-22T07:33:04.060Z,338
2022-10-22T07:33:38.527Z,337
2022-10-22T07:34:09.090Z,339
2022-10-22T07:34:43.058Z,309
2022-10-22T07:35:09.963Z,302
2022-10-22T07:35:39.179Z,350
2022-10-22T07:36:09.985Z,316
2022-10-22T07:36:47.108Z,329
2022-10-22T07:37:12.118Z,345
2022-10-22T07:37:43.836Z,333
2022-10-22T07:38:14.781Z,337
2022-10-22T07:38:48.373Z,334
2022-10-22T07:39:19.068Z,341
2022-10-22T07:39:48.111Z,349
2022-10-22T07:40:20.132Z,333
2022-10-22T07:40:51.705Z,343
2022-10-22T07:41:23.404Z,347
2022-10-22T07:41:51.490Z,343
2022-10-22T07:42:23.357Z,354
2022-10-22T07:42:54.232Z,339